Etusivu
METAR-TAF:

METAR-TAF

Lentoasemat :

Niamtougou, Togo

Leveyspiiri: 09-46N, Pituuspiiri: 001-06E, korkeus merenpinnasta: 342 m

Tämänhetkinen sää

Tämä raportti tehtiin 1 tunti ja 44 minuuttia sitten, kello 21.00 UTC
Tuuli 6 kn pohjoisen/luoteesta
Lämpötila 34°C
Kosteus 19%
Ilmanpaine 1013 hPa
Näkyvyys: 3000 m
usvaa

METAR: DXNG 282100Z 34006KT 3000 HZ NSC 34/07 Q1013

Aika: 22:44 (22:44 UTC)

Sääennuste

Tämä raportti tehtiin 5 tuntia ja 44 minuuttia sitten, kello 17.00 UTC
Ennuste voimassa 28. päivästä klo 18 UTC - 29. päivään klo 18 UTC
Tuuli 7 kn pohjoisesta
Näkyvyys: 2500 m
usvaa

TAF: DXNG 281700Z 2818/2918 35007KT 2500 HZ NSC

Säähavainnot ja -ennusteet yli 4000 lentoasemalta (METAR- ja TAF-raportit).

Käytössä olevat sääasemat on merkitty karttaan keltaisilla ja punaisilla pisteillä.

Aseta hiiri pisteen päälle nähdäksesi sääaseman nimen.

Klikkaa sitten nähdäksesi säähavainnot ja -ennusteet.

Kartan vaihtaminen: klikkaa mustalla rastilla varustettuja vihreitä pisteitä, niin voit zoomata sisään; viivalla varustettua vihreää pistettä, niin voit zoomata ulos tai vihreitä nuolia, niin pääset viereisille kartoille.


METAR-TAF: